createdAt,value
2022-12-06T00:00:01.556Z,3.33
2022-12-06T00:03:26.127Z,3.33
2022-12-06T00:06:51.562Z,3.67
2022-12-06T00:10:14.985Z,2.77
2022-12-06T00:13:41.363Z,2.83
2022-12-06T00:17:04.948Z,2.67
2022-12-06T00:20:28.386Z,2.73
2022-12-06T00:23:54.987Z,2.50
2022-12-06T00:27:18.487Z,2.50
2022-12-06T00:30:43.273Z,2.60
2022-12-06T00:34:06.930Z,2.70
2022-12-06T00:37:30.442Z,2.60
2022-12-06T00:41:00.790Z,2.73
2022-12-06T00:44:24.218Z,2.47
2022-12-06T00:47:48.995Z,2.30
2022-12-06T00:51:12.928Z,2.20
2022-12-06T00:54:36.737Z,2.70
2022-12-06T00:58:00.175Z,2.73
2022-12-06T01:01:27.200Z,2.43
2022-12-06T01:04:52.443Z,2.67
2022-12-06T01:08:18.483Z,2.60
2022-12-06T01:11:41.950Z,2.90
2022-12-06T01:15:06.259Z,2.70
2022-12-06T01:18:30.198Z,3.20
2022-12-06T01:21:55.019Z,2.40
2022-12-06T01:25:18.842Z,2.27
2022-12-06T01:28:42.304Z,2.80
2022-12-06T01:32:06.238Z,3.03
2022-12-06T01:35:29.762Z,3.17
2022-12-06T01:38:56.932Z,3.00
2022-12-06T01:42:20.809Z,2.40
2022-12-06T01:45:45.751Z,2.23
2022-12-06T01:49:18.822Z,2.50
2022-12-06T01:52:53.023Z,2.33
2022-12-06T01:56:18.580Z,2.90
2022-12-06T01:59:43.132Z,2.30
2022-12-06T02:03:13.589Z,2.20
2022-12-06T02:06:38.590Z,2.77
2022-12-06T02:10:04.445Z,2.43
2022-12-06T02:13:31.456Z,2.73
2022-12-06T02:17:18.983Z,1.90
2022-12-06T02:20:47.930Z,2.27
2022-12-06T02:24:57.762Z,2.20
2022-12-06T02:28:54.930Z,2.30
2022-12-06T02:32:27.292Z,2.90
2022-12-06T02:35:59.207Z,2.50
2022-12-06T02:39:31.551Z,2.70
2022-12-06T02:43:00.267Z,2.40
2022-12-06T02:46:29.787Z,2.60
2022-12-06T02:49:58.430Z,2.30
2022-12-06T02:53:27.140Z,2.80
2022-12-06T02:56:50.727Z,2.57
2022-12-06T03:00:37.731Z,2.77
2022-12-06T03:04:31.437Z,2.47
2022-12-06T03:07:59.413Z,2.33
2022-12-06T03:11:24.511Z,2.30
2022-12-06T03:15:06.187Z,3.13
2022-12-06T03:18:38.768Z,2.73
2022-12-06T03:22:09.383Z,2.77
2022-12-06T03:25:37.759Z,2.73
2022-12-06T03:29:04.491Z,2.77
2022-12-06T03:32:33.506Z,2.77
2022-12-06T03:35:59.713Z,2.80
2022-12-06T03:39:34.751Z,2.30
2022-12-06T03:43:00.888Z,3.40
2022-12-06T03:46:32.297Z,2.50
2022-12-06T03:50:03.241Z,2.47
2022-12-06T03:53:27.324Z,2.70
2022-12-06T03:56:50.937Z,2.50
2022-12-06T04:00:17.800Z,2.83
2022-12-06T04:03:41.354Z,2.87
2022-12-06T04:07:05.188Z,2.77
2022-12-06T04:10:28.734Z,2.70
2022-12-06T04:13:52.268Z,3.40
2022-12-06T04:17:34.795Z,2.80
2022-12-06T04:21:19.130Z,2.93
2022-12-06T04:24:42.599Z,2.73
2022-12-06T04:28:24.003Z,3.00
2022-12-06T04:32:05.032Z,3.00
2022-12-06T04:35:47.651Z,3.40
2022-12-06T04:39:12.432Z,3.27
2022-12-06T04:42:55.056Z,2.80
2022-12-06T04:46:18.567Z,2.70
2022-12-06T04:49:42.122Z,2.70
2022-12-06T04:53:07.073Z,2.30
2022-12-06T04:56:30.581Z,2.43
2022-12-06T04:59:54.128Z,2.70
2022-12-06T05:03:17.595Z,2.70
2022-12-06T05:06:41.120Z,2.93
2022-12-06T05:10:08.031Z,2.63
2022-12-06T05:13:31.474Z,2.43
2022-12-06T05:16:54.971Z,2.80
2022-12-06T05:20:19.079Z,2.60
2022-12-06T05:23:43.372Z,2.37
2022-12-06T05:27:08.180Z,2.83
2022-12-06T05:30:31.626Z,3.07
2022-12-06T05:33:55.630Z,2.60
2022-12-06T05:37:19.123Z,2.57
2022-12-06T05:40:43.989Z,3.00
2022-12-06T05:44:11.620Z,3.00
2022-12-06T05:47:35.209Z,3.03
2022-12-06T05:50:59.011Z,2.47
2022-12-06T05:54:22.809Z,2.27
2022-12-06T05:57:47.508Z,2.60
2022-12-06T06:01:12.676Z,2.57
2022-12-06T06:04:36.361Z,2.87
2022-12-06T06:08:00.109Z,2.60
2022-12-06T06:11:23.614Z,3.20
2022-12-06T06:14:47.104Z,2.80
2022-12-06T06:18:11.937Z,2.70
2022-12-06T06:21:35.379Z,2.57
2022-12-06T06:24:58.995Z,2.03
2022-12-06T06:28:23.281Z,2.20
2022-12-06T06:31:46.821Z,2.60
2022-12-06T06:35:11.894Z,2.80
2022-12-06T06:38:35.432Z,2.53
2022-12-06T06:41:58.866Z,2.80
2022-12-06T06:45:28.119Z,3.00
2022-12-06T06:48:52.226Z,3.50
2022-12-06T06:52:17.464Z,2.43
2022-12-06T06:55:40.975Z,2.70
2022-12-06T06:59:04.537Z,3.10
2022-12-06T07:02:28.084Z,3.17
2022-12-06T07:05:56.395Z,2.70
2022-12-06T07:09:21.179Z,2.97
2022-12-06T07:12:44.667Z,2.93
2022-12-06T07:16:14.575Z,3.17
2022-12-06T07:19:38.126Z,2.83
2022-12-06T07:23:01.733Z,2.53
2022-12-06T07:26:27.840Z,3.40
2022-12-06T07:29:51.320Z,2.80
2022-12-06T07:33:14.756Z,2.70
2022-12-06T07:36:39.822Z,3.10
2022-12-06T07:40:03.576Z,2.40
2022-12-06T07:43:46.195Z,2.60
2022-12-06T07:47:09.666Z,2.10
2022-12-06T07:50:33.677Z,2.47
2022-12-06T07:53:57.303Z,2.40
2022-12-06T07:57:21.677Z,2.83
2022-12-06T08:00:48.502Z,3.00
2022-12-06T08:04:12.188Z,2.50
2022-12-06T08:07:35.827Z,2.47
2022-12-06T08:11:00.937Z,2.47
2022-12-06T08:14:24.553Z,2.53
2022-12-06T08:17:49.325Z,2.37
2022-12-06T08:21:13.494Z,2.33
2022-12-06T08:24:37.147Z,2.27
2022-12-06T08:28:00.596Z,2.00
2022-12-06T08:31:25.395Z,2.07
2022-12-06T08:34:50.731Z,2.40
2022-12-06T08:38:14.274Z,2.23
2022-12-06T08:41:55.227Z,2.50
2022-12-06T08:45:18.926Z,2.43
2022-12-06T08:48:43.505Z,1.80
2022-12-06T08:52:08.609Z,2.30
2022-12-06T08:55:32.088Z,2.67
2022-12-06T08:58:57.404Z,2.10
2022-12-06T09:02:20.919Z,2.07
2022-12-06T09:05:45.519Z,2.17
2022-12-06T09:09:13.055Z,2.20
2022-12-06T09:12:36.726Z,2.27
2022-12-06T09:16:00.238Z,2.30
2022-12-06T09:19:23.692Z,3.00
2022-12-06T09:22:47.196Z,2.70
2022-12-06T09:26:12.068Z,2.57
2022-12-06T09:29:40.583Z,2.47
2022-12-06T09:33:04.622Z,2.57
2022-12-06T09:36:31.744Z,2.53
2022-12-06T09:40:03.164Z,2.10
2022-12-06T09:43:50.676Z,2.53
2022-12-06T09:47:28.626Z,2.63
2022-12-06T09:51:08.951Z,2.83
2022-12-06T09:55:00.307Z,3.30
2022-12-06T09:58:52.349Z,3.17
2022-12-06T10:02:50.223Z,2.90
2022-12-06T10:06:18.289Z,3.10
2022-12-06T10:10:00.013Z,3.60
2022-12-06T10:13:45.190Z,2.90
2022-12-06T10:17:26.138Z,3.73
2022-12-06T10:20:58.357Z,5.80
2022-12-06T10:24:45.306Z,6.70
2022-12-06T10:28:14.989Z,6.30
2022-12-06T10:31:55.969Z,5.40
2022-12-06T10:35:40.203Z,6.00
2022-12-06T10:39:16.648Z,6.90
2022-12-06T10:42:46.190Z,6.83
2022-12-06T10:46:35.014Z,7.17
2022-12-06T10:50:08.155Z,5.13
2022-12-06T10:53:42.239Z,6.17
2022-12-06T10:57:15.986Z,5.87
2022-12-06T11:00:52.730Z,5.90
2022-12-06T11:04:24.808Z,6.10
2022-12-06T11:07:53.777Z,6.27
2022-12-06T11:11:25.362Z,5.77
2022-12-06T11:14:55.465Z,6.10
2022-12-06T11:18:19.646Z,5.13
2022-12-06T11:21:53.499Z,6.20
2022-12-06T11:25:26.716Z,5.40
2022-12-06T11:29:00.199Z,6.30
2022-12-06T11:32:23.643Z,6.53
2022-12-06T11:35:48.973Z,6.50
2022-12-06T11:39:14.635Z,5.67
2022-12-06T11:42:38.239Z,5.00
2022-12-06T11:46:06.555Z,3.93
2022-12-06T11:49:35.551Z,3.83
2022-12-06T11:53:05.911Z,3.47
2022-12-06T11:56:35.036Z,4.37
2022-12-06T12:00:17.655Z,3.80
2022-12-06T12:03:45.423Z,3.60
2022-12-06T12:07:18.040Z,3.97
2022-12-06T12:10:45.002Z,3.87
2022-12-06T12:14:18.489Z,3.90
2022-12-06T12:17:48.778Z,3.90
2022-12-06T12:21:13.774Z,3.77
2022-12-06T12:25:18.404Z,3.40
2022-12-06T12:28:38.497Z,3.30
2022-12-06T12:32:12.054Z,2.97
2022-12-06T12:35:39.627Z,3.63
2022-12-06T12:39:04.909Z,3.03
2022-12-06T12:42:31.435Z,3.17
2022-12-06T12:46:21.148Z,2.70
2022-12-06T12:49:44.819Z,3.40
2022-12-06T12:53:32.043Z,2.30
2022-12-06T12:56:58.060Z,2.57
2022-12-06T13:00:24.961Z,2.87
2022-12-06T13:03:51.615Z,2.70
2022-12-06T13:07:28.543Z,2.37
2022-12-06T13:10:59.087Z,4.30
2022-12-06T13:14:27.163Z,5.73
2022-12-06T13:18:00.177Z,9.97
2022-12-06T13:21:28.718Z,4.70
2022-12-06T13:25:02.052Z,3.80
2022-12-06T13:28:34.792Z,3.50
2022-12-06T13:32:07.529Z,2.80
2022-12-06T13:35:36.340Z,3.50
2022-12-06T13:39:00.296Z,2.80
2022-12-06T13:42:46.738Z,2.93
2022-12-06T13:46:31.131Z,2.70
2022-12-06T13:49:58.384Z,3.33
2022-12-06T13:53:24.148Z,2.63
2022-12-06T13:56:47.817Z,2.97
2022-12-06T14:00:48.415Z,3.00
2022-12-06T14:08:00.157Z,3.33
2022-12-06T14:11:27.735Z,3.50
2022-12-06T14:14:59.423Z,3.20
2022-12-06T14:18:26.924Z,2.93
2022-12-06T14:21:57.087Z,2.83
2022-12-06T14:25:26.908Z,3.90
2022-12-06T14:28:52.747Z,3.20
2022-12-06T14:32:18.742Z,3.53
2022-12-06T14:35:42.412Z,2.70
2022-12-06T14:39:17.191Z,2.90
2022-12-06T14:43:03.256Z,2.70
2022-12-06T14:46:29.011Z,2.60
2022-12-06T14:50:11.678Z,2.77
2022-12-06T14:53:38.556Z,3.23
2022-12-06T14:57:02.965Z,4.00
2022-12-06T15:00:37.466Z,3.60
2022-12-06T15:04:04.612Z,3.50
2022-12-06T15:07:49.387Z,2.80
2022-12-06T15:11:50.803Z,2.43
2022-12-06T15:15:35.789Z,2.40
2022-12-06T15:19:01.422Z,2.80
2022-12-06T15:22:28.791Z,2.83
2022-12-06T15:25:52.288Z,2.77
2022-12-06T15:29:16.064Z,2.67
2022-12-06T15:32:41.419Z,3.07
2022-12-06T15:36:05.601Z,2.57
2022-12-06T15:39:29.219Z,2.73
2022-12-06T15:42:55.529Z,2.80
2022-12-06T15:46:24.759Z,4.00
2022-12-06T15:49:51.759Z,3.60
2022-12-06T15:53:17.024Z,2.83
2022-12-06T15:56:40.470Z,3.40
2022-12-06T16:00:04.968Z,3.00
2022-12-06T16:03:28.557Z,3.47
2022-12-06T16:06:53.336Z,3.90
2022-12-06T16:10:22.145Z,3.90
2022-12-06T16:13:47.469Z,3.00
2022-12-06T16:17:11.125Z,3.43
2022-12-06T16:20:35.497Z,3.60
2022-12-06T16:24:13.053Z,3.73
2022-12-06T16:27:37.541Z,3.43
2022-12-06T16:31:01.485Z,3.73
2022-12-06T16:34:27.322Z,3.60
2022-12-06T16:37:50.906Z,3.20
2022-12-06T16:41:21.549Z,2.90
2022-12-06T16:44:51.822Z,3.00
2022-12-06T16:48:19.315Z,3.70
2022-12-06T16:51:42.973Z,2.67
2022-12-06T16:55:07.340Z,4.10
2022-12-06T16:58:32.255Z,3.37
2022-12-06T17:01:56.747Z,3.60
2022-12-06T17:05:24.281Z,4.00
2022-12-06T17:08:48.108Z,3.80
2022-12-06T17:12:15.036Z,3.13
2022-12-06T17:15:40.433Z,5.50
2022-12-06T17:19:06.208Z,3.30
2022-12-06T17:22:29.836Z,3.30
2022-12-06T17:25:58.217Z,2.60
2022-12-06T17:29:23.380Z,3.57
2022-12-06T17:32:48.720Z,3.00
2022-12-06T17:36:17.620Z,4.03
2022-12-06T17:39:44.328Z,3.00
2022-12-06T17:43:09.960Z,3.23
2022-12-06T17:46:34.255Z,2.77
2022-12-06T17:49:59.781Z,2.60
2022-12-06T17:53:23.845Z,4.00
2022-12-06T17:56:50.010Z,4.80
2022-12-06T18:00:15.262Z,3.73
2022-12-06T18:03:38.815Z,2.50
2022-12-06T18:07:03.801Z,2.87
2022-12-06T18:10:27.294Z,2.50
2022-12-06T18:13:51.218Z,3.07
2022-12-06T18:17:14.850Z,2.50
2022-12-06T18:20:39.530Z,3.93
2022-12-06T18:24:21.885Z,2.90
2022-12-06T18:27:46.597Z,3.90
2022-12-06T18:31:13.711Z,4.13
2022-12-06T18:34:37.514Z,4.40
2022-12-06T18:38:01.299Z,5.83
2022-12-06T18:41:28.219Z,4.23
2022-12-06T18:44:56.651Z,3.60
2022-12-06T18:48:22.277Z,3.43
2022-12-06T18:51:45.973Z,3.67
2022-12-06T18:55:10.316Z,3.50
2022-12-06T18:58:35.361Z,4.40
2022-12-06T19:01:58.961Z,3.83
2022-12-06T19:05:46.042Z,3.80
2022-12-06T19:09:10.401Z,4.03
2022-12-06T19:12:34.235Z,3.50
2022-12-06T19:16:04.912Z,2.90
2022-12-06T19:19:29.027Z,3.40
2022-12-06T19:22:53.566Z,3.20
2022-12-06T19:26:17.072Z,3.90
2022-12-06T19:29:40.993Z,3.43
2022-12-06T19:33:06.352Z,2.90
2022-12-06T19:36:32.565Z,3.50
2022-12-06T19:39:56.808Z,3.87
2022-12-06T19:43:44.788Z,4.00
2022-12-06T19:47:09.375Z,4.80
2022-12-06T19:50:35.788Z,3.57
2022-12-06T19:53:59.900Z,4.20
2022-12-06T19:57:23.568Z,4.97
2022-12-06T20:00:50.014Z,4.13
2022-12-06T20:04:17.520Z,4.17
2022-12-06T20:07:42.478Z,4.00
2022-12-06T20:11:29.479Z,3.97
2022-12-06T20:14:53.384Z,3.10
2022-12-06T20:18:18.645Z,4.90
2022-12-06T20:21:42.769Z,4.80
2022-12-06T20:25:08.714Z,5.30
2022-12-06T20:28:32.433Z,3.73
2022-12-06T20:31:59.243Z,3.60
2022-12-06T20:35:24.340Z,4.60
2022-12-06T20:38:48.573Z,4.30
2022-12-06T20:42:13.432Z,4.40
2022-12-06T20:45:37.327Z,4.60
2022-12-06T20:49:05.318Z,3.20
2022-12-06T20:52:28.778Z,3.60
2022-12-06T20:55:52.233Z,3.60
2022-12-06T20:59:17.369Z,3.80
2022-12-06T21:02:41.355Z,4.30
2022-12-06T21:06:08.576Z,3.60
2022-12-06T21:09:32.704Z,2.30
2022-12-06T21:12:57.360Z,3.67
2022-12-06T21:16:27.163Z,4.00
2022-12-06T21:19:51.305Z,4.00
2022-12-06T21:23:15.080Z,4.40
2022-12-06T21:26:39.134Z,3.80
2022-12-06T21:30:03.334Z,3.63
2022-12-06T21:33:28.997Z,3.80
2022-12-06T21:36:53.093Z,3.33
2022-12-06T21:40:17.128Z,3.03
2022-12-06T21:43:41.435Z,4.10
2022-12-06T21:47:05.219Z,2.67
2022-12-06T21:50:30.780Z,3.10
2022-12-06T21:53:54.561Z,3.37
2022-12-06T21:57:19.908Z,3.23
2022-12-06T22:00:43.918Z,3.50
2022-12-06T22:04:07.775Z,3.53
2022-12-06T22:07:34.143Z,3.27
2022-12-06T22:10:58.033Z,3.73
2022-12-06T22:14:21.824Z,4.43
2022-12-06T22:17:45.277Z,3.33
2022-12-06T22:21:12.898Z,3.20
2022-12-06T22:24:37.897Z,3.17
2022-12-06T22:28:01.319Z,3.20
2022-12-06T22:31:27.705Z,4.00
2022-12-06T22:34:51.283Z,3.40
2022-12-06T22:38:14.733Z,2.93
2022-12-06T22:41:39.803Z,3.70
2022-12-06T22:45:03.222Z,3.30
2022-12-06T22:48:26.791Z,5.77
2022-12-06T22:51:50.198Z,4.03
2022-12-06T22:55:13.709Z,3.40
2022-12-06T22:58:39.415Z,3.13
2022-12-06T23:02:02.917Z,2.30
2022-12-06T23:05:26.478Z,3.67
2022-12-06T23:08:50.780Z,3.57
2022-12-06T23:12:14.388Z,3.40
2022-12-06T23:15:39.234Z,2.60
2022-12-06T23:19:05.185Z,3.60
2022-12-06T23:22:32.008Z,3.30
2022-12-06T23:25:55.569Z,2.97
2022-12-06T23:29:19.167Z,3.50
2022-12-06T23:32:43.953Z,3.40
2022-12-06T23:36:12.251Z,3.80
2022-12-06T23:39:35.862Z,3.50
2022-12-06T23:42:59.362Z,2.90
2022-12-06T23:46:26.417Z,3.73
2022-12-06T23:49:51.721Z,3.20
2022-12-06T23:53:15.125Z,3.37
2022-12-06T23:56:40.890Z,3.57
